sensor_id;sensor_type;location;lat;lon;timestamp;pressure;altitude;pressure_sealevel;temperature;humidity
9893;BME280;4985;49.092;8.542;2022-07-23T00:01:34;99214.28;;;26.97;46.41
9893;BME280;4985;49.092;8.542;2022-07-23T00:04:01;99213.19;;;26.93;46.64
9893;BME280;4985;49.092;8.542;2022-07-23T00:06:27;99201.31;;;26.94;46.59
9893;BME280;4985;49.092;8.542;2022-07-23T00:08:54;99196.97;;;26.93;46.68
9893;BME280;4985;49.092;8.542;2022-07-23T00:11:21;99207.78;;;26.93;46.72
9893;BME280;4985;49.092;8.542;2022-07-23T00:13:48;99198.09;;;26.87;46.95
9893;BME280;4985;49.092;8.542;2022-07-23T00:16:16;99205.09;;;26.88;46.92
9893;BME280;4985;49.092;8.542;2022-07-23T00:18:43;99204.56;;;26.91;46.86
9893;BME280;4985;49.092;8.542;2022-07-23T00:21:09;99202.13;;;26.89;46.97
9893;BME280;4985;49.092;8.542;2022-07-23T00:23:36;99209.69;;;26.87;47.09
9893;BME280;4985;49.092;8.542;2022-07-23T00:26:03;99206.97;;;26.92;46.99
9893;BME280;4985;49.092;8.542;2022-07-23T00:28:32;99206.72;;;26.89;47.25
9893;BME280;4985;49.092;8.542;2022-07-23T00:30:59;99216.72;;;26.88;47.27
9893;BME280;4985;49.092;8.542;2022-07-23T00:33:27;99222.94;;;26.89;47.36
9893;BME280;4985;49.092;8.542;2022-07-23T00:35:54;99219.97;;;26.85;47.40
9893;BME280;4985;49.092;8.542;2022-07-23T00:38:20;99213.19;;;26.83;47.44
9893;BME280;4985;49.092;8.542;2022-07-23T00:40:47;99206.44;;;26.80;47.42
9893;BME280;4985;49.092;8.542;2022-07-23T00:43:13;99201.59;;;26.72;47.49
9893;BME280;4985;49.092;8.542;2022-07-23T00:45:40;99198.09;;;26.66;47.62
9893;BME280;4985;49.092;8.542;2022-07-23T00:48:07;99200.53;;;26.68;47.57
9893;BME280;4985;49.092;8.542;2022-07-23T00:50:35;99197.53;;;26.69;47.45
9893;BME280;4985;49.092;8.542;2022-07-23T00:53:02;99197.84;;;26.73;47.34
9893;BME280;4985;49.092;8.542;2022-07-23T00:55:28;99198.38;;;26.65;47.56
9893;BME280;4985;49.092;8.542;2022-07-23T00:57:55;99202.44;;;26.62;47.50
9893;BME280;4985;49.092;8.542;2022-07-23T01:00:22;99199.19;;;26.65;47.23
9893;BME280;4985;49.092;8.542;2022-07-23T01:02:49;99199.97;;;26.71;46.98
9893;BME280;4985;49.092;8.542;2022-07-23T01:05:16;99194.56;;;26.71;46.96
9893;BME280;4985;49.092;8.542;2022-07-23T01:07:48;99183.78;;;26.66;46.96
9893;BME280;4985;49.092;8.542;2022-07-23T01:10:15;99189.72;;;26.68;46.82
9893;BME280;4985;49.092;8.542;2022-07-23T01:12:57;99187.28;;;26.66;46.66
9893;BME280;4985;49.092;8.542;2022-07-23T01:15:24;99179.19;;;26.66;46.58
9893;BME280;4985;49.092;8.542;2022-07-23T01:17:51;99180.00;;;26.67;46.46
9893;BME280;4985;49.092;8.542;2022-07-23T01:20:18;99185.94;;;26.64;46.46
9893;BME280;4985;49.092;8.542;2022-07-23T01:22:46;99184.06;;;26.64;46.31
9893;BME280;4985;49.092;8.542;2022-07-23T01:25:13;99186.75;;;26.64;46.26
9893;BME280;4985;49.092;8.542;2022-07-23T01:27:40;99160.56;;;26.65;46.07
9893;BME280;4985;49.092;8.542;2022-07-23T01:30:07;99160.84;;;26.63;46.02
9893;BME280;4985;49.092;8.542;2022-07-23T01:32:34;99163.53;;;26.63;45.44
9893;BME280;4985;49.092;8.542;2022-07-23T01:35:01;99160.84;;;26.63;45.53
9893;BME280;4985;49.092;8.542;2022-07-23T01:37:28;99167.34;;;26.62;45.51
9893;BME280;4985;49.092;8.542;2022-07-23T01:39:56;99174.88;;;26.55;45.64
9893;BME280;4985;49.092;8.542;2022-07-23T01:42:22;99184.87;;;26.55;45.66
9893;BME280;4985;49.092;8.542;2022-07-23T01:44:49;99198.09;;;26.56;45.66
9893;BME280;4985;49.092;8.542;2022-07-23T01:47:16;99197.03;;;26.52;45.69
9893;BME280;4985;49.092;8.542;2022-07-23T01:49:43;99194.31;;;26.57;45.55
9893;BME280;4985;49.092;8.542;2022-07-23T01:52:09;99197.03;;;26.52;45.53
9893;BME280;4985;49.092;8.542;2022-07-23T01:54:38;99205.41;;;26.51;45.61
9893;BME280;4985;49.092;8.542;2022-07-23T01:57:06;99209.69;;;26.42;45.71
9893;BME280;4985;49.092;8.542;2022-07-23T01:59:33;99199.16;;;26.50;45.29
9893;BME280;4985;49.092;8.542;2022-07-23T02:02:00;99195.09;;;26.48;45.28
9893;BME280;4985;49.092;8.542;2022-07-23T02:04:28;99211.03;;;26.44;45.40
9893;BME280;4985;49.092;8.542;2022-07-23T02:06:55;99198.63;;;26.43;45.38
9893;BME280;4985;49.092;8.542;2022-07-23T02:09:22;99206.19;;;26.46;45.37
9893;BME280;4985;49.092;8.542;2022-07-23T02:11:49;99189.19;;;26.46;45.48
9893;BME280;4985;49.092;8.542;2022-07-23T02:14:17;99195.41;;;26.41;45.63
9893;BME280;4985;49.092;8.542;2022-07-23T02:16:43;99201.31;;;26.38;45.69
9893;BME280;4985;49.092;8.542;2022-07-23T02:19:10;99199.19;;;26.40;45.71
9893;BME280;4985;49.092;8.542;2022-07-23T02:21:37;99202.09;;;26.33;46.01
9893;BME280;4985;49.092;8.542;2022-07-23T02:24:04;99204.53;;;26.35;46.03
9893;BME280;4985;49.092;8.542;2022-07-23T02:26:31;99203.44;;;26.36;46.09
9893;BME280;4985;49.092;8.542;2022-07-23T02:29:00;99207.22;;;26.30;46.25
9893;BME280;4985;49.092;8.542;2022-07-23T02:31:28;99220.72;;;26.30;46.40
9893;BME280;4985;49.092;8.542;2022-07-23T02:33:55;99214.50;;;26.24;46.53
9893;BME280;4985;49.092;8.542;2022-07-23T02:36:21;99219.34;;;26.17;46.76
9893;BME280;4985;49.092;8.542;2022-07-23T02:38:48;99232.53;;;26.13;47.00
9893;BME280;4985;49.092;8.542;2022-07-23T02:41:15;99231.47;;;26.15;47.12
9893;BME280;4985;49.092;8.542;2022-07-23T02:43:42;99235.25;;;26.13;47.23
9893;BME280;4985;49.092;8.542;2022-07-23T02:46:08;99239.56;;;26.15;47.22
9893;BME280;4985;49.092;8.542;2022-07-23T02:48:36;99237.66;;;26.15;47.17
9893;BME280;4985;49.092;8.542;2022-07-23T02:51:03;99243.34;;;26.13;47.16
9893;BME280;4985;49.092;8.542;2022-07-23T02:53:30;99240.09;;;26.11;47.20
9893;BME280;4985;49.092;8.542;2022-07-23T02:55:56;99242.78;;;26.06;47.28
9893;BME280;4985;49.092;8.542;2022-07-23T02:58:23;99240.31;;;25.95;47.53
9893;BME280;4985;49.092;8.542;2022-07-23T03:00:50;99240.56;;;25.88;47.60
9893;BME280;4985;49.092;8.542;2022-07-23T03:03:17;99252.38;;;25.82;47.83
9893;BME280;4985;49.092;8.542;2022-07-23T03:05:44;99264.81;;;25.83;47.82
9893;BME280;4985;49.092;8.542;2022-07-23T03:08:11;99268.66;;;25.97;47.68
9893;BME280;4985;49.092;8.542;2022-07-23T03:10:38;99276.19;;;26.00;47.59
9893;BME280;4985;49.092;8.542;2022-07-23T03:13:04;99278.34;;;25.98;47.39
9893;BME280;4985;49.092;8.542;2022-07-23T03:15:31;99272.75;;;26.15;47.21
9893;BME280;4985;49.092;8.542;2022-07-23T03:17:57;99272.50;;;26.27;46.92
9893;BME280;4985;49.092;8.542;2022-07-23T03:20:24;99285.16;;;26.16;46.91
9893;BME280;4985;49.092;8.542;2022-07-23T03:22:52;99285.16;;;26.11;46.95
9893;BME280;4985;49.092;8.542;2022-07-23T03:25:19;99294.31;;;26.05;47.04
9893;BME280;4985;49.092;8.542;2022-07-23T03:27:45;99297.00;;;26.05;47.01
9893;BME280;4985;49.092;8.542;2022-07-23T03:30:12;99288.41;;;26.18;46.98
9893;BME280;4985;49.092;8.542;2022-07-23T03:32:39;99278.97;;;26.26;46.79
9893;BME280;4985;49.092;8.542;2022-07-23T03:35:06;99285.97;;;26.11;46.81
9893;BME280;4985;49.092;8.542;2022-07-23T03:37:33;99287.59;;;26.18;46.78
9893;BME280;4985;49.092;8.542;2022-07-23T03:40:00;99284.91;;;26.23;46.75
9893;BME280;4985;49.092;8.542;2022-07-23T03:42:27;99291.09;;;26.13;46.67
9893;BME280;4985;49.092;8.542;2022-07-23T03:44:54;99297.28;;;26.13;46.58
9893;BME280;4985;49.092;8.542;2022-07-23T03:47:20;99297.25;;;26.03;46.90
9893;BME280;4985;49.092;8.542;2022-07-23T03:49:48;99295.16;;;26.21;46.92
9893;BME280;4985;49.092;8.542;2022-07-23T03:52:14;99295.75;;;26.28;46.71
9893;BME280;4985;49.092;8.542;2022-07-23T03:54:41;99283.28;;;26.27;46.61
9893;BME280;4985;49.092;8.542;2022-07-23T03:57:09;99280.91;;;26.30;46.61
9893;BME280;4985;49.092;8.542;2022-07-23T03:59:36;99280.31;;;26.23;46.48
9893;BME280;4985;49.092;8.542;2022-07-23T04:02:02;99300.06;;;26.29;46.61
9893;BME280;4985;49.092;8.542;2022-07-23T04:04:29;99298.94;;;26.25;46.46
9893;BME280;4985;49.092;8.542;2022-07-23T04:06:55;99301.13;;;26.28;46.64
9893;BME280;4985;49.092;8.542;2022-07-23T04:09:22;99285.75;;;26.33;46.49
9893;BME280;4985;49.092;8.542;2022-07-23T04:11:49;99271.25;;;26.39;46.28
9893;BME280;4985;49.092;8.542;2022-07-23T04:14:17;99279.31;;;26.45;46.29
9893;BME280;4985;49.092;8.542;2022-07-23T04:16:44;99297.91;;;26.31;45.68
9893;BME280;4985;49.092;8.542;2022-07-23T04:19:11;99296.78;;;26.22;46.30
9893;BME280;4985;49.092;8.542;2022-07-23T04:21:37;99303.00;;;26.27;46.50
9893;BME280;4985;49.092;8.542;2022-07-23T04:24:04;99317.28;;;26.18;46.31
9893;BME280;4985;49.092;8.542;2022-07-23T04:26:31;99329.44;;;26.20;46.76
9893;BME280;4985;49.092;8.542;2022-07-23T04:28:57;99329.19;;;26.32;46.61
9893;BME280;4985;49.092;8.542;2022-07-23T04:31:25;99338.37;;;26.36;46.56
9893;BME280;4985;49.092;8.542;2022-07-23T04:33:52;99330.34;;;26.41;46.40
9893;BME280;4985;49.092;8.542;2022-07-23T04:36:18;99341.12;;;26.41;46.25
9893;BME280;4985;49.092;8.542;2022-07-23T04:38:45;99341.84;;;26.21;46.63
9893;BME280;4985;49.092;8.542;2022-07-23T04:41:12;99340.41;;;25.98;46.92
9893;BME280;4985;49.092;8.542;2022-07-23T04:43:38;99332.88;;;26.05;46.97
9893;BME280;4985;49.092;8.542;2022-07-23T04:46:05;99333.16;;;26.09;46.70
9893;BME280;4985;49.092;8.542;2022-07-23T04:48:33;99321.34;;;26.20;46.26
9893;BME280;4985;49.092;8.542;2022-07-23T04:51:00;99318.62;;;26.25;45.96
9893;BME280;4985;49.092;8.542;2022-07-23T04:53:26;99333.22;;;26.24;46.10
9893;BME280;4985;49.092;8.542;2022-07-23T04:55:53;99344.22;;;26.07;46.67
9893;BME280;4985;49.092;8.542;2022-07-23T04:58:20;99343.34;;;25.97;46.98
9893;BME280;4985;49.092;8.542;2022-07-23T05:00:46;99348.75;;;26.02;46.91
9893;BME280;4985;49.092;8.542;2022-07-23T05:03:13;99356.09;;;26.06;46.70
9893;BME280;4985;49.092;8.542;2022-07-23T05:05:41;99354.63;;;25.89;47.35
9893;BME280;4985;49.092;8.542;2022-07-23T05:08:08;99364.09;;;25.91;47.38
9893;BME280;4985;49.092;8.542;2022-07-23T05:10:34;99358.75;;;26.01;47.13
9893;BME280;4985;49.092;8.542;2022-07-23T05:13:01;99365.25;;;26.05;47.02
9893;BME280;4985;49.092;8.542;2022-07-23T05:15:27;99359.06;;;26.05;46.86
9893;BME280;4985;49.092;8.542;2022-07-23T05:17:54;99359.00;;;25.95;46.63
9893;BME280;4985;49.092;8.542;2022-07-23T05:20:21;99383.16;;;25.74;47.39
9893;BME280;4985;49.092;8.542;2022-07-23T05:22:49;99395.81;;;25.74;47.44
9893;BME280;4985;49.092;8.542;2022-07-23T05:25:15;99405.53;;;25.75;47.52
9893;BME280;4985;49.092;8.542;2022-07-23T05:27:42;99410.28;;;25.68;47.79
9893;BME280;4985;49.092;8.542;2022-07-23T05:30:10;99398.31;;;25.48;48.21
9893;BME280;4985;49.092;8.542;2022-07-23T05:32:36;99407.78;;;25.56;48.18
9893;BME280;4985;49.092;8.542;2022-07-23T05:35:04;99409.72;;;25.66;47.86
9893;BME280;4985;49.092;8.542;2022-07-23T05:37:31;99386.53;;;25.65;47.58
9893;BME280;4985;49.092;8.542;2022-07-23T05:40:01;99392.41;;;25.57;47.18
9893;BME280;4985;49.092;8.542;2022-07-23T05:42:28;99397.72;;;25.46;47.20
9893;BME280;4985;49.092;8.542;2022-07-23T05:44:55;99390.16;;;25.43;47.42
9893;BME280;4985;49.092;8.542;2022-07-23T05:47:21;99390.84;;;25.61;47.01
9893;BME280;4985;49.092;8.542;2022-07-23T05:49:48;99381.78;;;25.72;46.58
9893;BME280;4985;49.092;8.542;2022-07-23T05:52:15;99382.34;;;25.79;46.59
9893;BME280;4985;49.092;8.542;2022-07-23T05:54:41;99378.56;;;25.80;47.00
9893;BME280;4985;49.092;8.542;2022-07-23T05:57:09;99369.69;;;25.79;47.24
9893;BME280;4985;49.092;8.542;2022-07-23T05:59:36;99367.28;;;25.83;47.43
9893;BME280;4985;49.092;8.542;2022-07-23T06:02:02;99361.63;;;25.85;47.65
9893;BME280;4985;49.092;8.542;2022-07-23T06:04:29;99352.75;;;25.89;47.85
9893;BME280;4985;49.092;8.542;2022-07-23T06:06:56;99346.81;;;25.87;48.27
9893;BME280;4985;49.092;8.542;2022-07-23T06:09:22;99348.66;;;25.81;48.64
9893;BME280;4985;49.092;8.542;2022-07-23T06:11:49;99359.69;;;25.80;49.05
9893;BME280;4985;49.092;8.542;2022-07-23T06:14:17;99364.28;;;25.74;49.17
9893;BME280;4985;49.092;8.542;2022-07-23T06:16:43;99388.69;;;25.63;49.27
9893;BME280;4985;49.092;8.542;2022-07-23T06:19:10;99408.63;;;25.62;50.21
9893;BME280;4985;49.092;8.542;2022-07-23T06:21:36;99416.19;;;25.65;50.69
9893;BME280;4985;49.092;8.542;2022-07-23T06:24:03;99408.75;;;25.45;50.98
9893;BME280;4985;49.092;8.542;2022-07-23T06:26:30;99398.75;;;25.40;51.03
9893;BME280;4985;49.092;8.542;2022-07-23T06:28:56;99404.78;;;25.52;50.46
9893;BME280;4985;49.092;8.542;2022-07-23T06:31:24;99416.00;;;25.39;51.10
9893;BME280;4985;49.092;8.542;2022-07-23T06:33:51;99442.34;;;25.32;51.53
9893;BME280;4985;49.092;8.542;2022-07-23T06:36:18;99455.19;;;25.25;51.89
9893;BME280;4985;49.092;8.542;2022-07-23T06:38:44;99450.38;;;25.27;51.79
9893;BME280;4985;49.092;8.542;2022-07-23T06:41:11;99446.00;;;25.21;51.61
9893;BME280;4985;49.092;8.542;2022-07-23T06:43:38;99458.50;;;25.32;51.43
9893;BME280;4985;49.092;8.542;2022-07-23T06:46:04;99467.03;;;25.24;51.88
9893;BME280;4985;49.092;8.542;2022-07-23T06:48:32;99446.91;;;25.32;51.13
9893;BME280;4985;49.092;8.542;2022-07-23T06:51:01;99439.72;;;25.37;50.96
9893;BME280;4985;49.092;8.542;2022-07-23T06:53:27;99431.44;;;25.49;50.50
9893;BME280;4985;49.092;8.542;2022-07-23T06:55:54;99431.28;;;25.61;49.98
9893;BME280;4985;49.092;8.542;2022-07-23T06:58:21;99415.66;;;25.68;49.71
9893;BME280;4985;49.092;8.542;2022-07-23T07:00:47;99431.94;;;25.73;49.62
9893;BME280;4985;49.092;8.542;2022-07-23T07:03:16;99438.84;;;25.64;50.74
9893;BME280;4985;49.092;8.542;2022-07-23T07:05:44;99437.66;;;25.49;51.16
9893;BME280;4985;49.092;8.542;2022-07-23T07:08:11;99419.97;;;25.64;50.07
9893;BME280;4985;49.092;8.542;2022-07-23T07:10:37;99414.69;;;25.74;49.69
9893;BME280;4985;49.092;8.542;2022-07-23T07:13:04;99417.94;;;25.81;49.71
9893;BME280;4985;49.092;8.542;2022-07-23T07:15:31;99423.91;;;25.83;49.62
9893;BME280;4985;49.092;8.542;2022-07-23T07:17:57;99433.03;;;25.77;50.32
9893;BME280;4985;49.092;8.542;2022-07-23T07:20:24;99437.81;;;25.70;50.40
9893;BME280;4985;49.092;8.542;2022-07-23T07:22:52;99434.19;;;25.59;51.28
9893;BME280;4985;49.092;8.542;2022-07-23T07:25:18;99441.00;;;25.62;51.29
9893;BME280;4985;49.092;8.542;2022-07-23T07:27:45;99453.59;;;25.56;51.66
9893;BME280;4985;49.092;8.542;2022-07-23T07:30:12;99468.41;;;25.53;51.72
9893;BME280;4985;49.092;8.542;2022-07-23T07:32:39;99459.16;;;25.44;51.76
9893;BME280;4985;49.092;8.542;2022-07-23T07:35:07;99459.06;;;25.34;51.84
9893;BME280;4985;49.092;8.542;2022-07-23T07:37:34;99459.03;;;25.29;52.10
9893;BME280;4985;49.092;8.542;2022-07-23T07:40:02;99446.66;;;25.33;51.66
9893;BME280;4985;49.092;8.542;2022-07-23T07:42:29;99442.72;;;25.46;51.50
9893;BME280;4985;49.092;8.542;2022-07-23T07:44:57;99449.50;;;25.48;51.13
9893;BME280;4985;49.092;8.542;2022-07-23T07:47:24;99458.56;;;25.37;51.52
9893;BME280;4985;49.092;8.542;2022-07-23T07:49:51;99456.38;;;25.34;51.55
9893;BME280;4985;49.092;8.542;2022-07-23T07:52:17;99456.75;;;25.48;51.24
9893;BME280;4985;49.092;8.542;2022-07-23T07:54:44;99465.88;;;25.42;51.61
9893;BME280;4985;49.092;8.542;2022-07-23T07:57:12;99461.25;;;25.37;51.74
9893;BME280;4985;49.092;8.542;2022-07-23T07:59:38;99468.88;;;25.45;51.49
9893;BME280;4985;49.092;8.542;2022-07-23T08:02:05;99460.34;;;25.59;50.93
9893;BME280;4985;49.092;8.542;2022-07-23T08:04:32;99463.66;;;25.66;50.49
9893;BME280;4985;49.092;8.542;2022-07-23T08:06:58;99470.75;;;25.72;50.79
9893;BME280;4985;49.092;8.542;2022-07-23T08:09:25;99469.69;;;25.73;50.72
9893;BME280;4985;49.092;8.542;2022-07-23T08:11:52;99478.50;;;25.68;51.51
9893;BME280;4985;49.092;8.542;2022-07-23T08:14:20;99476.88;;;25.67;51.78
9893;BME280;4985;49.092;8.542;2022-07-23T08:16:46;99477.19;;;25.71;51.52
9893;BME280;4985;49.092;8.542;2022-07-23T08:19:13;99478.03;;;25.71;51.22
9893;BME280;4985;49.092;8.542;2022-07-23T08:21:40;99478.22;;;25.65;51.05
9893;BME280;4985;49.092;8.542;2022-07-23T08:24:06;99477.19;;;25.71;50.81
9893;BME280;4985;49.092;8.542;2022-07-23T08:26:33;99489.28;;;25.68;50.99
9893;BME280;4985;49.092;8.542;2022-07-23T08:28:59;99486.75;;;25.57;51.39
9893;BME280;4985;49.092;8.542;2022-07-23T08:31:27;99490.59;;;25.61;51.28
9893;BME280;4985;49.092;8.542;2022-07-23T08:33:54;99494.91;;;25.62;50.95
9893;BME280;4985;49.092;8.542;2022-07-23T08:36:21;99476.16;;;25.72;51.04
9893;BME280;4985;49.092;8.542;2022-07-23T08:38:48;99486.97;;;25.77;50.65
9893;BME280;4985;49.092;8.542;2022-07-23T08:41:16;99486.50;;;25.85;50.12
9893;BME280;4985;49.092;8.542;2022-07-23T08:43:42;99492.47;;;25.92;50.54
9893;BME280;4985;49.092;8.542;2022-07-23T08:46:11;99488.47;;;25.95;50.65
9893;BME280;4985;49.092;8.542;2022-07-23T08:48:40;99497.09;;;25.97;50.15
9893;BME280;4985;49.092;8.542;2022-07-23T08:51:07;99495.75;;;25.99;50.31
9893;BME280;4985;49.092;8.542;2022-07-23T08:53:35;99496.31;;;26.01;50.25
9893;BME280;4985;49.092;8.542;2022-07-23T08:56:04;99495.22;;;26.02;50.04
9893;BME280;4985;49.092;8.542;2022-07-23T08:58:31;99490.66;;;26.03;49.71
9893;BME280;4985;49.092;8.542;2022-07-23T09:00:59;99479.88;;;26.03;49.83
9893;BME280;4985;49.092;8.542;2022-07-23T09:03:27;99483.94;;;26.05;49.59
9893;BME280;4985;49.092;8.542;2022-07-23T09:05:57;99481.78;;;26.07;49.79
9893;BME280;4985;49.092;8.542;2022-07-23T09:08:24;99480.47;;;26.10;49.80
9893;BME280;4985;49.092;8.542;2022-07-23T09:10:53;99489.09;;;26.12;49.80
9893;BME280;4985;49.092;8.542;2022-07-23T09:13:35;99484.50;;;26.12;49.60
9893;BME280;4985;49.092;8.542;2022-07-23T09:16:06;99482.91;;;26.11;49.28
9893;BME280;4985;49.092;8.542;2022-07-23T09:18:37;99479.41;;;26.16;49.43
9893;BME280;4985;49.092;8.542;2022-07-23T09:21:12;99473.19;;;26.16;49.33
9893;BME280;4985;49.092;8.542;2022-07-23T09:23:42;99467.81;;;26.16;49.26
9893;BME280;4985;49.092;8.542;2022-07-23T09:26:18;99468.37;;;26.18;49.18
9893;BME280;4985;49.092;8.542;2022-07-23T09:28:54;99474.31;;;26.20;49.16
9893;BME280;4985;49.092;8.542;2022-07-23T09:31:21;99468.09;;;26.19;49.01
9893;BME280;4985;49.092;8.542;2022-07-23T09:33:49;99472.16;;;26.22;48.95
9893;BME280;4985;49.092;8.542;2022-07-23T09:36:27;99469.19;;;26.23;48.88
9893;BME280;4985;49.092;8.542;2022-07-23T09:38:53;99468.94;;;26.25;48.79
9893;BME280;4985;49.092;8.542;2022-07-23T09:41:20;99470.56;;;26.26;48.68
9893;BME280;4985;49.092;8.542;2022-07-23T09:43:54;99467.06;;;26.25;48.52
9893;BME280;4985;49.092;8.542;2022-07-23T09:46:22;99471.12;;;26.28;48.44
9893;BME280;4985;49.092;8.542;2022-07-23T09:48:50;99471.12;;;26.28;48.34
9893;BME280;4985;49.092;8.542;2022-07-23T09:51:19;99468.19;;;26.29;48.24
9893;BME280;4985;49.092;8.542;2022-07-23T09:53:50;99472.50;;;26.30;48.21
9893;BME280;4985;49.092;8.542;2022-07-23T09:56:18;99466.84;;;26.32;48.17
9893;BME280;4985;49.092;8.542;2022-07-23T09:58:49;99466.84;;;26.32;48.17
9893;BME280;4985;49.092;8.542;2022-07-23T10:01:16;99475.47;;;26.34;48.13
9893;BME280;4985;49.092;8.542;2022-07-23T10:03:44;99456.59;;;26.34;48.03
9893;BME280;4985;49.092;8.542;2022-07-23T10:06:12;99458.19;;;26.35;47.98
9893;BME280;4985;49.092;8.542;2022-07-23T10:08:44;99466.87;;;26.37;47.99
9893;BME280;4985;49.092;8.542;2022-07-23T10:11:14;99461.22;;;26.38;47.98
9893;BME280;4985;49.092;8.542;2022-07-23T10:13:42;99458.28;;;26.40;47.91
9893;BME280;4985;49.092;8.542;2022-07-23T10:16:29;99468.81;;;26.42;47.86
9893;BME280;4985;49.092;8.542;2022-07-23T10:18:55;99465.28;;;26.41;47.87
9893;BME280;4985;49.092;8.542;2022-07-23T10:21:27;99468.81;;;26.42;47.77
9893;BME280;4985;49.092;8.542;2022-07-23T10:24:10;99466.91;;;26.42;47.64
9893;BME280;4985;49.092;8.542;2022-07-23T10:26:41;99466.38;;;26.45;47.67
9893;BME280;4985;49.092;8.542;2022-07-23T10:29:20;99474.47;;;26.45;47.67
9893;BME280;4985;49.092;8.542;2022-07-23T10:31:58;99477.19;;;26.45;47.67
9893;BME280;4985;49.092;8.542;2022-07-23T10:34:36;99479.62;;;26.47;47.62
9893;BME280;4985;49.092;8.542;2022-07-23T10:37:12;99479.34;;;26.48;47.60
9893;BME280;4985;49.092;8.542;2022-07-23T10:39:44;99474.75;;;26.49;47.63
9893;BME280;4985;49.092;8.542;2022-07-23T10:42:12;99471.25;;;26.48;47.57
9893;BME280;4985;49.092;8.542;2022-07-23T10:44:40;99473.13;;;26.48;47.62
9893;BME280;4985;49.092;8.542;2022-07-23T10:47:08;99470.97;;;26.50;47.66
9893;BME280;4985;49.092;8.542;2022-07-23T10:49:43;99480.72;;;26.51;47.58
9893;BME280;4985;49.092;8.542;2022-07-23T10:52:24;99475.56;;;26.49;47.54
9893;BME280;4985;49.092;8.542;2022-07-23T10:54:54;99478.03;;;26.51;47.27
9893;BME280;4985;49.092;8.542;2022-07-23T10:57:21;99480.19;;;26.54;47.20
9893;BME280;4985;49.092;8.542;2022-07-23T11:00:20;99472.38;;;26.52;47.13
9893;BME280;4985;49.092;8.542;2022-07-23T11:02:49;99476.41;;;26.55;47.20
9893;BME280;4985;49.092;8.542;2022-07-23T11:05:17;99475.34;;;26.56;47.24
9893;BME280;4985;49.092;8.542;2022-07-23T11:08:16;99478.84;;;26.56;47.32
9893;BME280;4985;49.092;8.542;2022-07-23T11:10:51;99464.28;;;26.57;47.31
9893;BME280;4985;49.092;8.542;2022-07-23T11:16:14;99465.38;;;26.61;47.39
9893;BME280;4985;49.092;8.542;2022-07-23T11:19:15;99465.94;;;26.63;47.54
9893;BME280;4985;49.092;8.542;2022-07-23T11:21:51;99461.06;;;26.65;47.65
9893;BME280;4985;49.092;8.542;2022-07-23T11:24:22;99468.91;;;26.67;47.63
9893;BME280;4985;49.092;8.542;2022-07-23T11:27:01;99456.22;;;26.67;47.71
9893;BME280;4985;49.092;8.542;2022-07-23T11:29:47;99450.81;;;26.67;47.75
9893;BME280;4985;49.092;8.542;2022-07-23T11:32:38;99455.16;;;26.68;47.68
9893;BME280;4985;49.092;8.542;2022-07-23T11:35:25;99460.53;;;26.68;47.45
9893;BME280;4985;49.092;8.542;2022-07-23T11:37:54;99461.63;;;26.67;47.22
9893;BME280;4985;49.092;8.542;2022-07-23T11:40:28;99460.53;;;26.68;47.07
9893;BME280;4985;49.092;8.542;2022-07-23T11:42:59;99454.34;;;26.68;46.96
9893;BME280;4985;49.092;8.542;2022-07-23T11:45:30;99458.38;;;26.70;46.84
9893;BME280;4985;49.092;8.542;2022-07-23T11:47:59;99463.78;;;26.70;46.67
9893;BME280;4985;49.092;8.542;2022-07-23T11:50:26;99462.72;;;26.72;46.38
9893;BME280;4985;49.092;8.542;2022-07-23T11:52:53;99462.72;;;26.72;46.23
9893;BME280;4985;49.092;8.542;2022-07-23T11:55:20;99454.88;;;26.70;46.00
9893;BME280;4985;49.092;8.542;2022-07-23T11:57:46;99463.28;;;26.74;45.65
9893;BME280;4985;49.092;8.542;2022-07-23T12:00:17;99458.69;;;26.74;45.61
9893;BME280;4985;49.092;8.542;2022-07-23T12:02:46;99459.50;;;26.75;45.03
9893;BME280;4985;49.092;8.542;2022-07-23T12:05:14;99442.72;;;26.73;45.03
9893;BME280;4985;49.092;8.542;2022-07-23T12:07:43;99453.56;;;26.78;44.98
9893;BME280;4985;49.092;8.542;2022-07-23T12:10:13;99452.75;;;26.77;44.73
9893;BME280;4985;49.092;8.542;2022-07-23T12:12:41;99448.16;;;26.78;44.70
9893;BME280;4985;49.092;8.542;2022-07-23T12:15:09;99451.66;;;26.78;44.59
9893;BME280;4985;49.092;8.542;2022-07-23T12:17:39;99448.44;;;26.81;44.75
9893;BME280;4985;49.092;8.542;2022-07-23T12:20:09;99440.06;;;26.83;44.68
9893;BME280;4985;49.092;8.542;2022-07-23T12:22:38;99444.37;;;26.84;44.85
9893;BME280;4985;49.092;8.542;2022-07-23T12:25:08;99447.09;;;26.84;44.84
9893;BME280;4985;49.092;8.542;2022-07-23T12:27:35;99443.06;;;26.86;44.93
9893;BME280;4985;49.092;8.542;2022-07-23T12:30:19;99442.25;;;26.86;44.99
9893;BME280;4985;49.092;8.542;2022-07-23T12:32:49;99436.59;;;26.87;45.16
9893;BME280;4985;49.092;8.542;2022-07-23T12:35:17;99442.53;;;26.89;45.20
9893;BME280;4985;49.092;8.542;2022-07-23T12:37:46;99437.94;;;26.90;45.45
9893;BME280;4985;49.092;8.542;2022-07-23T12:40:27;99436.84;;;26.91;45.58
9893;BME280;4985;49.092;8.542;2022-07-23T12:42:56;99433.88;;;26.92;45.54
9893;BME280;4985;49.092;8.542;2022-07-23T12:45:23;99441.72;;;26.94;45.56
9893;BME280;4985;49.092;8.542;2022-07-23T12:47:57;99444.41;;;26.94;45.62
9893;BME280;4985;49.092;8.542;2022-07-23T12:50:38;99431.47;;;26.96;45.63
9893;BME280;4985;49.092;8.542;2022-07-23T12:53:08;99435.78;;;26.97;45.72
9893;BME280;4985;49.092;8.542;2022-07-23T12:55:36;99430.13;;;26.98;45.75
9893;BME280;4985;49.092;8.542;2022-07-23T12:58:14;99425.53;;;26.99;45.71
9893;BME280;4985;49.092;8.542;2022-07-23T13:00:53;99425.25;;;27.01;45.68
9893;BME280;4985;49.092;8.542;2022-07-23T13:03:23;99427.72;;;27.02;45.45
9893;BME280;4985;49.092;8.542;2022-07-23T13:05:50;99429.84;;;27.00;45.32
9893;BME280;4985;49.092;8.542;2022-07-23T13:08:17;99433.66;;;27.04;45.19
9893;BME280;4985;49.092;8.542;2022-07-23T13:10:44;99429.87;;;27.05;45.16
9893;BME280;4985;49.092;8.542;2022-07-23T13:13:13;99426.09;;;27.06;45.01
9893;BME280;4985;49.092;8.542;2022-07-23T13:15:40;99426.66;;;27.08;44.90
9893;BME280;4985;49.092;8.542;2022-07-23T13:18:06;99430.19;;;27.09;44.61
9893;BME280;4985;49.092;8.542;2022-07-23T13:20:35;99427.19;;;27.10;44.71
9893;BME280;4985;49.092;8.542;2022-07-23T13:23:04;99426.12;;;27.11;44.68
9893;BME280;4985;49.092;8.542;2022-07-23T13:25:30;99435.84;;;27.12;44.66
9893;BME280;4985;49.092;8.542;2022-07-23T13:27:57;99423.69;;;27.15;44.60
9893;BME280;4985;49.092;8.542;2022-07-23T13:30:24;99428.81;;;27.16;44.66
9893;BME280;4985;49.092;8.542;2022-07-23T13:32:50;99423.97;;;27.18;44.57